Albuquerque, NM (87120)

8:53 AM MST on February 07, 2016 (GMT -0700)
Taylor Ranch (Golf Course & Homestead Cir) | | Change Station
CLOSE
Current Station
Personal Weather Station
Location: Albuquerque, NM
Elevation: 5126 ft
Nearby Weather Stations

Elev 5126 ft 35.16 °N, 106.69 °W | Updated 5 seconds ago

Clear
Clear
35.7 °F
Feels Like 36 °F
N
1.0
Wind Variable Wind from East
Gusts 3.0 mph

Today
High -- | Low -- °F
--% Chance of Precip.
Yesterday
High -- | Low -- °F
Precip. -- in
Pressure 30.37 in
Visibility 10.0 miles
Clouds Clear
Windchill 36 °F
Dew Point 19 °F
Humidity 51%
Rainfall 0.00 in
Snow Depth Not available.
7:01 AM 5:41 PM
Waning Crescent, 1% visible
METAR KABQ 071452Z 35006KT 10SM CLR 02/M09 A3038 RMK AO2 SLP284 T00171089 53015
Pressure 30.37 in
Visibility 10.0 miles
Clouds Clear
Windchill 36 °F
Dew Point 19 °F
Humidity 51%
Rainfall 0.00 in
Snow Depth Not available.
7:01 AM 5:41 PM
Waning Crescent, 1% visible
METAR KABQ 071452Z 35006KT 10SM CLR 02/M09 A3038 RMK AO2 SLP284 T00171089 53015

10-Day Weather Forecast

Almanac

Astronomy

Feb. 07, 2016 Rise Set
Actual Time
Civil Twilight
Nautical Twilight
Astronomical Twilight
Moon
Length of Visible Light
Length of Day
Tomorrow will be .
, % of the Moon is Illuminated

Today's Extremes

State Highs State Lows

Community

WunderPhotos

Upload Photos

1,891,216 photos uploaded!

WunderBlog® & News

Nearby

Air Quality

  Air Quality AQ Index Pollutant
Not available.

Snow Depth

Station Depth Elevation

Earthquake Activity

City Distance Mag. Time & Date
Minimum magnitude displayed is 2.5.

Coastal Water Temperatures

Place Temperature

Stations

Nearby Weather Stations

Station Location Temp. Windchill Dew Point Humidity Wind Precip. Elev Updated Type
                   

Watches & Warnings

There are currently no watches in effect.